»·PEaware :: N172SL KBUR-KAVX

N172SL :: KBUR-KAVX

FLIGHT INFORMATION

Flight Status: Arrived
Operator: Privately registered:
United States
More flights under this callsign
Pilot: Steve L. (17268)
Aircraft: CESSNA 172 SKYHAWK
(C172)
More flights by this aircraft type
Origin: KBUR Bob Hope-Burbank
United States
Destination: KAVX Catalina
United States
More flights between these airports :: More routes between these airports
Route: +
File this flight plan on PilotEdge
Remarks:
Altitude:
(Current/Filed)
5,500ft
Speed:
(Current/Filed)
0kts
Departed: 13-Jan-18 05:59 PM
Arrived: 13-Jan-18 06:38 PM
Distance/Time
Traveled:
48nm/0:39
Distance/Time
To Go:
Arrived

Flight Plot

Page will automatically refresh every two minutes.


Map Options




Map Legend


Flown Route
Filed Route
Departure Airport
Arrival Airport
Navaid (VOR, NDB)
Fix

Horizontal Profiles

Position Reports

Time Latitude Longitude Heading Altitude Ground
Speed
13-Jan-18 17:48 34.208154 -118.491839 88 777ft 0kts
13-Jan-18 17:49 34.208154 -118.491839 88 777ft 0kts
13-Jan-18 17:50 34.208154 -118.491839 88 777ft 0kts
13-Jan-18 17:51 34.208154 -118.491839 88 777ft 0kts
13-Jan-18 17:52 34.208154 -118.491839 88 777ft 0kts
13-Jan-18 17:53 34.208154 -118.491839 88 777ft 0kts
13-Jan-18 17:54 34.208154 -118.491839 88 777ft 0kts
13-Jan-18 17:55 34.208154 -118.491839 88 777ft 0kts
13-Jan-18 17:56 34.208154 -118.491839 88 777ft 0kts
13-Jan-18 17:57 34.208154 -118.491839 88 777ft 0kts
13-Jan-18 17:58 34.208154 -118.491839 88 777ft 0kts
13-Jan-18 17:59 34.206659 -118.491248 178 777ft 5kts
13-Jan-18 18:00 34.206230 -118.491212 171 777ft 0kts
13-Jan-18 18:01 34.201224 -118.490395 172 777ft 20kts
13-Jan-18 18:02 34.197173 -118.489949 145 777ft 0kts
13-Jan-18 18:03 34.197164 -118.489939 128 777ft 0kts
13-Jan-18 18:04 34.197444 -118.489226 359 777ft 18kts
13-Jan-18 18:05 34.214231 -118.491295 359 1407ft 68kts
13-Jan-18 18:06 34.222274 -118.509491 246 2320ft 86kts
13-Jan-18 18:07 34.196808 -118.515668 182 2963ft 112kts
13-Jan-18 18:08 34.182698 -118.539312 271 2947ft 115kts
13-Jan-18 18:09 34.180705 -118.576386 270 3344ft 101kts
13-Jan-18 18:10 34.177666 -118.607365 291 4178ft 83kts
13-Jan-18 18:11 34.171995 -118.593278 122 4956ft 86kts
13-Jan-18 18:12 34.157029 -118.569793 123 5548ft 109kts
13-Jan-18 18:13 34.131651 -118.544788 153 5509ft 125kts
13-Jan-18 18:14 34.123100 -118.553571 16 5516ft 106kts
13-Jan-18 18:15 34.107436 -118.532822 160 5499ft 115kts
13-Jan-18 18:16 34.079392 -118.516365 154 5526ft 121kts
13-Jan-18 18:17 34.050692 -118.499028 153 5559ft 118kts
13-Jan-18 18:18 34.022214 -118.481483 153 5564ft 120kts
13-Jan-18 18:19 33.993060 -118.462065 154 5495ft 121kts
13-Jan-18 18:20 33.964047 -118.445839 158 5505ft 119kts
13-Jan-18 18:21 33.934426 -118.431392 158 5516ft 119kts
13-Jan-18 18:22 33.911222 -118.406049 137 5524ft 121kts
13-Jan-18 18:23 33.893491 -118.384725 136 5506ft 121kts
13-Jan-18 18:24 33.866423 -118.353120 141 5517ft 120kts
13-Jan-18 18:25 33.841015 -118.328101 139 5534ft 120kts
13-Jan-18 18:26 33.820128 -118.306605 142 5544ft 121kts
13-Jan-18 18:27 33.789777 -118.278141 144 5506ft 123kts
13-Jan-18 18:28 33.765985 -118.259049 149 5478ft 125kts
13-Jan-18 18:29 33.736899 -118.235659 144 5426ft 126kts
13-Jan-18 18:30 33.708557 -118.233037 221 5506ft 117kts
13-Jan-18 18:31 33.678985 -118.252002 211 5486ft 120kts
13-Jan-18 18:32 33.649987 -118.271850 211 5492ft 119kts
13-Jan-18 18:33 33.620034 -118.288722 206 5339ft 122kts
13-Jan-18 18:34 33.589841 -118.306514 208 4799ft 119kts
13-Jan-18 18:35 33.559503 -118.322594 194 4249ft 122kts
13-Jan-18 18:36 33.526777 -118.331369 196 3672ft 122kts
13-Jan-18 18:37 33.494639 -118.343213 211 2998ft 121kts
13-Jan-18 18:38 33.463974 -118.358182 192 2705ft 114kts
13-Jan-18 18:39 33.434259 -118.365975 190 2796ft 109kts
13-Jan-18 18:40 33.411013 -118.389390 222 2840ft 110kts
13-Jan-18 18:41 33.389993 -118.414781 231 2628ft 96kts
13-Jan-18 18:42 33.382965 -118.437332 302 2437ft 78kts
13-Jan-18 18:43 33.394374 -118.433493 55 1920ft 64kts
13-Jan-18 18:44 33.403385 -118.418515 53 1557ft 33kts
13-Jan-18 18:45 33.404087 -118.414986 183 1557ft 11kts

Navigation Log

Ident Type
Flight plan parsing failed, navigation log unavailable